57分钟前
罗盘
风向 的 风向 000° Fort Worth Meacham International Airport 16/34
风: 0 千吨, 0 beaufort
0 500 1.500 3.000 5.000 8.000 10.000
没有云
METAR KFTW 290753Z 00000KT 10SM R16/6000VP6000FT CLR 05/03 A3021 RMK AO2 SLP228 T00500033

METAR定义 | 嵌入

24小时趋势

航班类别VFRLIFR
温度18 °C5 °C
风速14 千吨0 千吨
能见度16 公里0 米

更多历史数据

下载我们的安卓应用程序

从你的主屏幕上轻松地访问你的航空天气。
只需一次付费,您就可以获得无广告的体验。

您会帮助我们保持Metar-Taf.com正常运行吗?
您的贡献有助于网站的进一步开发并支付费用。

没有更多广告

您是捐款5美元还是更多?然后,我们将永远不会再向您展示广告,这是我们永恒的感谢!
捐赠前先登录

METAR Fort Worth Meacham International Airport

Fort Worth Meacham International Airport是Fort Worth,美国中的大型机场。 机场有{a,plural,=1{一条跑道} other{#跑道}}: 16/34 和 17/35

该报告是针对2021年11月29日 01:53, 当地时间上的Fort Worth Meacham International Airport所做的。

机场观察

可变方向的风很小或没有风。

可见度为16 公里。 跑道16的能见度为介于6.000 米和多于 6.000 米之间的变量。

有没有云。 没有观察到天花板。

温度和风寒是5 °C。 露点为3 °C,相对湿度为87%。 海平面上的气压为1023 压力 (QNH)。

评论

  • 自动气象站,可确定降水类型 (AO2)
  • 海平面压力为1022,8 压力 (SLP228)
  • 温度为5,0 °C (T00500033)

白天

今天,太阳从07:12升起,在17:23降落。 这适用于Fort Worth Meacham International Airport,世界夏令时可能有所不同。 当地时间与世界标准时间之间的时差为-6 小时。 当前,没有夏令时有效。

公司介绍

在这个机场,你可以找到飞行学校。 这个机场上的公司有Rich Aviation Services, Delta Qualiflight Aviation 和 International Flight Academy。

体会

到Vliegles.nl去找飞行课程,跳伞和其他飞行体验。 浏览页面,了解Fort Worth Meacham International Airport附近所有可用的活动。 你也可以使用搜索功能来寻找你所在地附近的特定飞行课程、跳伞或其他飞行体验。

您是否要在网站上Fort Worth Meacham International Airport飞行的天气? 阅读更多   自由!